createdAt,value
2018-11-01T00:01:05.309Z,6.80
2018-11-01T00:03:39.761Z,6.60
2018-11-01T00:06:14.283Z,6.40
2018-11-01T00:08:48.633Z,6.27
2018-11-01T00:11:22.945Z,7.77
2018-11-01T00:13:57.273Z,6.35
2018-11-01T00:16:31.659Z,6.97
2018-11-01T00:19:06.217Z,6.23
2018-11-01T00:21:40.513Z,6.50
2018-11-01T00:24:14.867Z,6.00
2018-11-01T00:26:49.320Z,8.13
2018-11-01T00:29:23.639Z,5.87
2018-11-01T00:31:58.297Z,6.00
2018-11-01T00:34:33.309Z,6.12
2018-11-01T00:37:07.506Z,6.10
2018-11-01T00:39:41.794Z,5.90
2018-11-01T00:42:16.794Z,6.72
2018-11-01T00:44:51.038Z,6.67
2018-11-01T00:47:25.467Z,7.00
2018-11-01T00:49:59.745Z,6.17
2018-11-01T00:52:34.154Z,7.12
2018-11-01T00:55:09.449Z,6.00
2018-11-01T00:57:43.939Z,7.00
2018-11-01T01:00:19.768Z,6.40
2018-11-01T01:02:54.249Z,7.72
2018-11-01T01:05:28.462Z,6.90
2018-11-01T01:08:03.775Z,7.50
2018-11-01T01:10:37.929Z,7.20
2018-11-01T01:13:13.357Z,7.00
2018-11-01T01:15:48.138Z,8.00
2018-11-01T01:18:22.525Z,6.78
2018-11-01T01:20:56.900Z,6.50
2018-11-01T01:23:32.434Z,7.08
2018-11-01T01:26:07.006Z,7.50
2018-11-01T01:28:41.371Z,8.33
2018-11-01T01:31:15.676Z,8.03
2018-11-01T01:33:50.069Z,7.03
2018-11-01T01:36:24.350Z,8.10
2018-11-01T01:38:58.762Z,8.03
2018-11-01T01:41:33.080Z,8.18
2018-11-01T01:44:07.624Z,7.50
2018-11-01T01:46:41.957Z,8.35
2018-11-01T01:49:16.309Z,7.70
2018-11-01T01:51:50.588Z,7.17
2018-11-01T01:54:25.609Z,7.83
2018-11-01T01:56:59.810Z,7.50
2018-11-01T01:59:34.061Z,8.05
2018-11-01T02:02:08.345Z,8.28
2018-11-01T02:04:42.738Z,7.55
2018-11-01T02:07:17.513Z,7.75
2018-11-01T02:09:51.717Z,7.75
2018-11-01T02:12:26.134Z,7.35
2018-11-01T02:15:00.480Z,8.90
2018-11-01T02:17:35.009Z,9.03
2018-11-01T02:20:11.058Z,7.12
2018-11-01T02:22:45.962Z,7.17
2018-11-01T02:25:20.257Z,7.92
2018-11-01T02:28:00.652Z,7.20
2018-11-01T02:30:34.827Z,7.37
2018-11-01T02:33:09.042Z,8.03
2018-11-01T02:35:43.420Z,7.60
2018-11-01T02:38:18.589Z,8.28
2018-11-01T02:40:52.891Z,7.08
2018-11-01T02:43:27.211Z,7.12
2018-11-01T02:46:02.032Z,8.15
2018-11-01T02:48:36.201Z,8.60
2018-11-01T02:51:10.411Z,7.15
2018-11-01T02:53:44.729Z,8.63
2018-11-01T02:56:18.922Z,8.25
2018-11-01T02:58:53.259Z,9.15
2018-11-01T03:01:27.645Z,10.13
2018-11-01T03:04:01.947Z,9.00
2018-11-01T03:06:36.236Z,8.00
2018-11-01T03:09:10.488Z,8.48
2018-11-01T03:11:44.821Z,9.85
2018-11-01T03:14:19.586Z,9.73
2018-11-01T03:16:53.966Z,7.87
2018-11-01T03:19:28.184Z,9.90
2018-11-01T03:22:02.561Z,8.50
2018-11-01T03:24:36.778Z,9.18
2018-11-01T03:27:11.120Z,8.75
2018-11-01T03:29:45.444Z,8.98
2018-11-01T03:32:19.816Z,9.75
2018-11-01T03:34:54.125Z,10.48
2018-11-01T03:37:28.477Z,9.30
2018-11-01T03:40:02.808Z,13.93
2018-11-01T03:42:37.546Z,9.68
2018-11-01T03:45:13.126Z,9.65
2018-11-01T03:47:47.596Z,10.45
2018-11-01T03:50:21.918Z,10.75
2018-11-01T03:52:57.026Z,9.03
2018-11-01T03:55:31.318Z,9.10
2018-11-01T03:58:07.402Z,8.60
2018-11-01T04:00:41.686Z,11.95
2018-11-01T04:03:16.095Z,10.55
2018-11-01T04:05:50.498Z,9.18
2018-11-01T04:08:24.840Z,9.75
2018-11-01T04:10:59.229Z,11.53
2018-11-01T04:13:33.594Z,10.53
2018-11-01T04:16:07.841Z,10.03
2018-11-01T04:18:42.237Z,9.23
2018-11-01T04:21:16.701Z,11.33
2018-11-01T04:23:51.106Z,10.38
2018-11-01T04:26:25.605Z,12.07
2018-11-01T04:29:00.204Z,10.40
2018-11-01T04:31:34.391Z,11.88
2018-11-01T04:34:08.944Z,10.35
2018-11-01T04:36:43.080Z,10.58
2018-11-01T04:39:17.325Z,11.28
2018-11-01T04:41:51.673Z,11.25
2018-11-01T04:44:25.992Z,12.47
2018-11-01T04:47:00.366Z,10.82
2018-11-01T04:49:34.511Z,12.40
2018-11-01T04:52:08.847Z,12.07
2018-11-01T04:54:43.125Z,9.93
2018-11-01T04:57:17.479Z,10.38
2018-11-01T04:59:51.817Z,10.55
2018-11-01T05:02:26.935Z,12.00
2018-11-01T05:05:01.290Z,11.97
2018-11-01T05:07:35.748Z,12.75
2018-11-01T05:10:11.061Z,9.93
2018-11-01T05:12:48.617Z,11.57
2018-11-01T05:15:23.145Z,11.45
2018-11-01T05:17:57.419Z,11.10
2018-11-01T05:20:31.992Z,10.78
2018-11-01T05:23:06.875Z,10.88
2018-11-01T05:25:41.117Z,11.22
2018-11-01T05:28:15.478Z,12.18
2018-11-01T05:30:49.864Z,12.47
2018-11-01T05:33:24.184Z,11.43
2018-11-01T05:35:58.418Z,10.53
2018-11-01T05:38:32.769Z,10.60
2018-11-01T05:41:07.076Z,10.85
2018-11-01T05:43:42.897Z,10.58
2018-11-01T05:46:17.289Z,9.75
2018-11-01T05:48:51.464Z,10.13
2018-11-01T05:51:25.665Z,13.60
2018-11-01T05:53:59.892Z,12.23
2018-11-01T05:56:35.193Z,11.57
2018-11-01T05:59:10.713Z,12.90
2018-11-01T06:01:51.049Z,11.65
2018-11-01T06:04:25.359Z,12.65
2018-11-01T06:06:59.909Z,12.73
2018-11-01T06:09:34.772Z,12.90
2018-11-01T06:12:09.152Z,14.23
2018-11-01T06:14:43.362Z,13.48
2018-11-01T06:17:17.781Z,11.80
2018-11-01T06:19:52.048Z,12.93
2018-11-01T06:22:26.652Z,13.20
2018-11-01T06:25:01.099Z,12.53
2018-11-01T06:27:38.365Z,12.82
2018-11-01T06:30:14.551Z,10.60
2018-11-01T06:32:48.953Z,13.20
2018-11-01T06:35:37.438Z,11.80
2018-11-01T06:38:11.817Z,11.55
2018-11-01T06:40:46.322Z,10.95
2018-11-01T06:43:20.683Z,11.97
2018-11-01T06:45:54.952Z,11.85
2018-11-01T06:48:29.811Z,11.75
2018-11-01T06:51:04.821Z,12.45
2018-11-01T06:53:39.049Z,12.45
2018-11-01T06:56:13.508Z,11.40
2018-11-01T06:58:47.944Z,12.43
2018-11-01T07:01:22.188Z,13.05
2018-11-01T07:03:56.487Z,11.90
2018-11-01T07:06:30.820Z,10.78
2018-11-01T07:09:08.494Z,11.90
2018-11-01T07:11:43.271Z,11.60
2018-11-01T07:14:17.875Z,11.12
2018-11-01T07:16:52.161Z,11.85
2018-11-01T07:19:26.493Z,14.05
2018-11-01T07:22:00.758Z,10.38
2018-11-01T07:24:35.483Z,10.80
2018-11-01T07:27:09.983Z,10.90
2018-11-01T07:29:44.264Z,13.88
2018-11-01T07:32:18.680Z,11.53
2018-11-01T07:34:53.123Z,9.88
2018-11-01T07:37:27.373Z,12.58
2018-11-01T07:40:01.874Z,10.72
2018-11-01T07:42:36.190Z,10.95
2018-11-01T07:45:11.582Z,14.73
2018-11-01T07:47:46.864Z,10.38
2018-11-01T07:50:21.019Z,12.00
2018-11-01T07:52:55.360Z,11.15
2018-11-01T07:55:29.919Z,11.18
2018-11-01T07:58:04.213Z,12.98
2018-11-01T08:00:38.510Z,10.88
2018-11-01T08:03:12.909Z,11.80
2018-11-01T08:05:47.305Z,11.33
2018-11-01T08:08:21.345Z,10.70
2018-11-01T08:10:55.660Z,11.55
2018-11-01T08:13:30.140Z,10.95
2018-11-01T08:16:05.763Z,12.03
2018-11-01T08:18:40.377Z,12.13
2018-11-01T08:21:14.939Z,11.08
2018-11-01T08:23:49.195Z,10.85
2018-11-01T08:26:23.545Z,11.25
2018-11-01T08:28:57.945Z,10.48
2018-11-01T08:31:32.249Z,9.55
2018-11-01T08:34:06.524Z,9.90
2018-11-01T08:36:41.082Z,10.85
2018-11-01T08:39:15.655Z,10.25
2018-11-01T08:41:50.006Z,9.95
2018-11-01T08:44:24.618Z,11.35
2018-11-01T08:46:59.178Z,11.22
2018-11-01T08:49:33.472Z,9.73
2018-11-01T08:52:07.809Z,9.78
2018-11-01T08:54:43.163Z,10.60
2018-11-01T08:57:17.485Z,9.68
2018-11-01T09:02:34.890Z,10.20
2018-11-01T09:05:10.152Z,11.13
2018-11-01T09:07:44.627Z,9.90
2018-11-01T09:10:18.911Z,10.55
2018-11-01T09:12:57.065Z,11.75
2018-11-01T09:15:31.537Z,12.80
2018-11-01T09:18:06.214Z,11.10
2018-11-01T09:20:40.617Z,10.13
2018-11-01T09:23:16.018Z,10.57
2018-11-01T09:25:50.447Z,10.00
2018-11-01T09:28:24.889Z,10.90
2018-11-01T09:30:59.819Z,10.85
2018-11-01T09:33:34.103Z,9.60
2018-11-01T09:36:08.331Z,11.43
2018-11-01T09:38:42.836Z,11.33
2018-11-01T09:41:17.167Z,9.63
2018-11-01T09:43:51.488Z,10.47
2018-11-01T09:46:26.210Z,11.63
2018-11-01T09:49:00.337Z,12.87
2018-11-01T09:51:34.621Z,9.77
2018-11-01T09:54:09.165Z,10.43
2018-11-01T09:56:43.484Z,11.30
2018-11-01T09:59:17.698Z,10.50
2018-11-01T10:01:51.904Z,10.47
2018-11-01T10:04:26.246Z,10.33
2018-11-01T10:07:00.623Z,11.53
2018-11-01T10:09:34.988Z,9.97
2018-11-01T10:12:10.050Z,11.37
2018-11-01T10:14:44.218Z,12.00
2018-11-01T10:17:18.964Z,10.10
2018-11-01T10:19:52.865Z,10.33
2018-11-01T10:22:27.561Z,11.00
2018-11-01T10:25:01.733Z,11.63
2018-11-01T10:27:36.585Z,10.10
2018-11-01T10:30:13.438Z,10.77
2018-11-01T10:32:47.722Z,12.70
2018-11-01T10:35:21.938Z,11.30
2018-11-01T10:37:56.392Z,15.60
2018-11-01T10:40:30.676Z,11.07
2018-11-01T10:43:05.110Z,12.67
2018-11-01T10:45:39.416Z,12.63
2018-11-01T10:48:13.764Z,10.93
2018-11-01T10:50:48.081Z,10.50
2018-11-01T10:53:22.613Z,10.43
2018-11-01T10:55:57.332Z,11.30
2018-11-01T10:58:31.738Z,11.63
2018-11-01T11:01:12.501Z,12.43
2018-11-01T11:03:46.960Z,10.43
2018-11-01T11:06:22.074Z,10.30
2018-11-01T11:08:56.375Z,12.27
2018-11-01T11:11:30.677Z,14.10
2018-11-01T11:14:05.874Z,13.43
2018-11-01T11:16:40.249Z,12.30
2018-11-01T11:19:14.698Z,14.30
2018-11-01T11:21:49.108Z,12.77
2018-11-01T11:24:23.418Z,11.77
2018-11-01T11:26:57.612Z,12.50
2018-11-01T11:29:32.064Z,12.30
2018-11-01T11:32:06.476Z,12.57
2018-11-01T11:34:40.659Z,12.70
2018-11-01T11:37:15.005Z,11.67
2018-11-01T11:39:49.524Z,12.73
2018-11-01T11:42:23.697Z,12.13
2018-11-01T11:44:57.973Z,11.73
2018-11-01T11:47:32.393Z,13.93
2018-11-01T11:50:08.078Z,13.53
2018-11-01T11:52:43.731Z,15.40
2018-11-01T11:55:18.050Z,12.23
2018-11-01T11:57:52.561Z,12.10
2018-11-01T12:00:26.944Z,12.50
2018-11-01T12:03:01.339Z,13.93
2018-11-01T12:05:35.909Z,13.40
2018-11-01T12:08:10.181Z,12.27
2018-11-01T12:10:44.460Z,12.87
2018-11-01T12:13:18.753Z,12.07
2018-11-01T12:15:52.967Z,13.07
2018-11-01T12:18:27.369Z,12.43
2018-11-01T12:21:01.572Z,14.30
2018-11-01T12:23:36.013Z,13.60
2018-11-01T12:26:10.308Z,13.90
2018-11-01T12:28:44.956Z,12.83
2018-11-01T12:31:19.077Z,15.20
2018-11-01T12:33:53.477Z,12.87
2018-11-01T12:36:27.890Z,12.63
2018-11-01T12:39:02.185Z,13.20
2018-11-01T12:41:36.565Z,12.63
2018-11-01T12:44:10.904Z,12.93
2018-11-01T12:46:45.647Z,11.83
2018-11-01T12:49:20.871Z,11.30
2018-11-01T12:51:55.253Z,12.60
2018-11-01T12:54:29.671Z,12.03
2018-11-01T12:57:04.091Z,13.53
2018-11-01T12:59:39.001Z,12.77
2018-11-01T13:02:13.290Z,11.03
2018-11-01T13:04:47.732Z,12.13
2018-11-01T13:07:22.256Z,13.10
2018-11-01T13:09:56.540Z,10.93
2018-11-01T13:12:30.959Z,11.20
2018-11-01T13:15:06.227Z,12.83
2018-11-01T13:17:41.094Z,15.63
2018-11-01T13:20:15.519Z,13.20
2018-11-01T13:22:49.879Z,16.90
2018-11-01T13:25:24.256Z,13.10
2018-11-01T13:27:58.667Z,12.30
2018-11-01T13:30:32.833Z,20.30
2018-11-01T13:33:07.163Z,13.57
2018-11-01T13:35:42.495Z,13.13
2018-11-01T13:38:17.104Z,14.13
2018-11-01T13:40:52.027Z,15.07
2018-11-01T13:43:26.063Z,16.10
2018-11-01T13:46:01.439Z,14.97
2018-11-01T13:48:36.132Z,14.33
2018-11-01T13:51:10.594Z,17.90
2018-11-01T13:53:45.049Z,14.53
2018-11-01T13:56:19.428Z,14.17
2018-11-01T13:58:54.601Z,14.20
2018-11-01T14:01:29.056Z,16.67
2018-11-01T14:04:03.441Z,23.47
2018-11-01T14:06:37.690Z,14.47
2018-11-01T14:09:12.245Z,13.77
2018-11-01T14:11:46.635Z,14.57
2018-11-01T14:14:21.253Z,14.73
2018-11-01T14:16:55.306Z,17.17
2018-11-01T14:19:29.793Z,15.17
2018-11-01T14:22:04.530Z,14.30
2018-11-01T14:24:38.964Z,15.67
2018-11-01T14:27:13.312Z,15.87
2018-11-01T14:29:47.592Z,15.27
2018-11-01T14:32:22.013Z,14.57
2018-11-01T14:34:56.231Z,13.47
2018-11-01T14:37:30.830Z,16.17
2018-11-01T14:40:06.494Z,16.80
2018-11-01T14:42:41.004Z,16.47
2018-11-01T14:45:15.660Z,15.83
2018-11-01T14:47:50.158Z,17.50
2018-11-01T14:50:24.576Z,19.50
2018-11-01T14:52:59.457Z,17.57
2018-11-01T14:55:35.188Z,21.47
2018-11-01T14:58:09.471Z,17.57
2018-11-01T15:00:42.660Z,16.60
2018-11-01T15:03:17.157Z,17.13
2018-11-01T15:05:51.812Z,16.37
2018-11-01T15:08:26.250Z,16.20
2018-11-01T15:11:00.721Z,24.13
2018-11-01T15:13:35.234Z,19.43
2018-11-01T15:16:09.727Z,18.40
2018-11-01T15:18:44.047Z,16.03
2018-11-01T15:21:18.520Z,18.23
2018-11-01T15:23:52.900Z,18.33
2018-11-01T15:26:27.310Z,16.53
2018-11-01T15:29:01.940Z,17.10
2018-11-01T15:31:36.538Z,16.60
2018-11-01T15:34:11.005Z,15.87
2018-11-01T15:36:45.920Z,17.07
2018-11-01T15:39:20.329Z,21.87
2018-11-01T15:41:54.648Z,19.57
2018-11-01T15:44:28.968Z,20.90
2018-11-01T15:47:03.582Z,17.90
2018-11-01T15:49:38.091Z,16.77
2018-11-01T15:52:13.026Z,20.13
2018-11-01T15:54:47.469Z,18.67
2018-11-01T15:57:21.896Z,17.03
2018-11-01T15:59:56.462Z,17.63
2018-11-01T16:02:30.858Z,16.70
2018-11-01T16:05:05.798Z,20.20
2018-11-01T16:07:40.063Z,19.57
2018-11-01T16:10:15.148Z,17.13
2018-11-01T16:12:49.445Z,17.73
2018-11-01T16:15:23.779Z,16.57
2018-11-01T16:17:58.400Z,18.67
2018-11-01T16:20:33.590Z,17.27
2018-11-01T16:23:08.650Z,16.47
2018-11-01T16:25:42.904Z,16.45
2018-11-01T16:28:17.461Z,15.93
2018-11-01T16:30:52.906Z,16.83
2018-11-01T16:33:27.281Z,17.20
2018-11-01T16:36:01.612Z,17.57
2018-11-01T16:38:36.080Z,18.17
2018-11-01T16:41:10.571Z,19.60
2018-11-01T16:43:45.026Z,17.60
2018-11-01T16:46:19.893Z,18.33
2018-11-01T16:48:54.673Z,17.17
2018-11-01T16:51:29.139Z,16.40
2018-11-01T16:54:03.461Z,18.20
2018-11-01T16:56:37.913Z,19.00
2018-11-01T16:59:12.717Z,18.43
2018-11-01T17:01:47.430Z,17.57
2018-11-01T17:04:22.648Z,18.33
2018-11-01T17:06:58.018Z,17.70
2018-11-01T17:09:32.454Z,16.90
2018-11-01T17:12:07.029Z,16.93
2018-11-01T17:14:41.357Z,16.07
2018-11-01T17:17:15.878Z,15.13
2018-11-01T17:19:51.214Z,14.90
2018-11-01T17:22:26.501Z,15.93
2018-11-01T17:25:01.200Z,16.07
2018-11-01T17:27:35.547Z,14.77
2018-11-01T17:30:10.289Z,13.70
2018-11-01T17:32:50.482Z,14.00
2018-11-01T17:35:24.707Z,13.10
2018-11-01T17:37:59.202Z,13.70
2018-11-01T17:40:33.507Z,14.27
2018-11-01T17:43:07.835Z,14.03
2018-11-01T17:45:42.746Z,14.80
2018-11-01T17:48:17.748Z,21.50
2018-11-01T17:50:52.136Z,17.60
2018-11-01T17:53:26.359Z,15.17
2018-11-01T17:56:00.914Z,19.83
2018-11-01T17:58:35.453Z,13.03
2018-11-01T18:01:10.644Z,12.57
2018-11-01T18:03:44.936Z,11.70
2018-11-01T18:06:20.542Z,10.30
2018-11-01T18:08:56.883Z,14.95
2018-11-01T18:11:31.024Z,14.43
2018-11-01T18:14:05.636Z,12.53
2018-11-01T18:16:40.173Z,12.43
2018-11-01T18:19:14.563Z,12.13
2018-11-01T18:21:49.141Z,11.03
2018-11-01T18:24:24.153Z,10.00
2018-11-01T18:26:58.821Z,10.28
2018-11-01T18:29:34.011Z,8.73
2018-11-01T18:32:08.372Z,8.97
2018-11-01T18:34:43.014Z,9.98
2018-11-01T18:37:17.315Z,9.10
2018-11-01T18:39:51.600Z,8.57
2018-11-01T18:42:26.440Z,8.50
2018-11-01T18:45:01.284Z,10.88
2018-11-01T18:47:36.705Z,10.10
2018-11-01T18:50:12.409Z,11.68
2018-11-01T18:52:47.081Z,13.32
2018-11-01T18:55:21.484Z,9.45
2018-11-01T18:57:55.885Z,9.03
2018-11-01T19:00:30.394Z,11.08
2018-11-01T19:03:05.454Z,10.88
2018-11-01T19:05:39.845Z,9.85
2018-11-01T19:08:14.433Z,9.60
2018-11-01T19:10:48.756Z,10.00
2018-11-01T19:13:23.465Z,8.68
2018-11-01T19:15:57.934Z,10.98
2018-11-01T19:18:32.285Z,9.80
2018-11-01T19:21:06.585Z,8.90
2018-11-01T19:23:40.790Z,9.68
2018-11-01T19:26:15.270Z,8.88
2018-11-01T19:28:49.625Z,8.73
2018-11-01T19:31:23.845Z,8.93
2018-11-01T19:33:58.533Z,9.35
2018-11-01T19:36:32.907Z,10.50
2018-11-01T19:39:09.020Z,10.18
2018-11-01T19:41:44.495Z,11.73
2018-11-01T19:44:18.872Z,10.72
2018-11-01T19:46:53.247Z,10.98
2018-11-01T19:49:27.737Z,12.33
2018-11-01T19:52:02.145Z,9.48
2018-11-01T19:54:37.018Z,9.30
2018-11-01T19:57:11.371Z,9.63
2018-11-01T19:59:46.973Z,10.15
2018-11-01T20:02:21.231Z,11.78
2018-11-01T20:04:55.730Z,10.10
2018-11-01T20:07:30.017Z,14.60
2018-11-01T20:10:04.903Z,14.60
2018-11-01T20:12:39.222Z,12.50
2018-11-01T20:15:13.551Z,11.25
2018-11-01T20:17:48.339Z,9.85
2018-11-01T20:20:22.788Z,9.80
2018-11-01T20:22:57.448Z,9.25
2018-11-01T20:25:31.951Z,10.10
2018-11-01T20:28:06.540Z,9.60
2018-11-01T20:30:40.887Z,9.58
2018-11-01T20:33:15.332Z,10.88
2018-11-01T20:35:49.700Z,13.72
2018-11-01T20:38:24.050Z,11.80
2018-11-01T20:40:58.401Z,9.90
2018-11-01T20:43:32.890Z,9.03
2018-11-01T20:46:07.328Z,9.48
2018-11-01T20:48:42.192Z,9.60
2018-11-01T20:51:17.023Z,10.65
2018-11-01T20:53:51.728Z,10.65
2018-11-01T20:56:26.508Z,9.48
2018-11-01T20:59:00.860Z,9.28
2018-11-01T21:01:35.332Z,11.78
2018-11-01T21:04:09.629Z,12.10
2018-11-01T21:06:43.969Z,9.88
2018-11-01T21:09:18.801Z,10.95
2018-11-01T21:11:53.462Z,10.70
2018-11-01T21:14:28.074Z,10.72
2018-11-01T21:17:02.652Z,10.93
2018-11-01T21:19:38.023Z,10.65
2018-11-01T21:22:15.440Z,10.72
2018-11-01T21:24:49.644Z,9.48
2018-11-01T21:27:24.132Z,9.38
2018-11-01T21:29:58.524Z,9.08
2018-11-01T21:32:32.728Z,9.53
2018-11-01T21:35:07.688Z,10.58
2018-11-01T21:37:42.065Z,8.90
2018-11-01T21:40:16.517Z,10.75
2018-11-01T21:42:50.749Z,11.48
2018-11-01T21:45:25.128Z,9.73
2018-11-01T21:47:59.443Z,10.70
2018-11-01T21:50:34.334Z,10.45
2018-11-01T21:53:08.563Z,10.20
2018-11-01T21:55:42.960Z,12.88
2018-11-01T21:58:17.448Z,10.18
2018-11-01T22:00:51.656Z,10.75
2018-11-01T22:03:25.854Z,11.10
2018-11-01T22:06:00.384Z,11.28
2018-11-01T22:08:34.786Z,12.68
2018-11-01T22:11:09.097Z,10.98
2018-11-01T22:13:43.500Z,13.32
2018-11-01T22:16:17.861Z,9.70
2018-11-01T22:18:52.241Z,10.78
2018-11-01T22:21:26.736Z,11.20
2018-11-01T22:24:01.045Z,9.68
2018-11-01T22:26:35.356Z,11.93
2018-11-01T22:29:09.676Z,10.72
2018-11-01T22:31:44.064Z,11.53
2018-11-01T22:34:18.405Z,10.85
2018-11-01T22:36:52.850Z,9.53
2018-11-01T22:39:27.366Z,10.63
2018-11-01T22:42:01.887Z,9.93
2018-11-01T22:44:36.309Z,10.82
2018-11-01T22:47:10.498Z,11.33
2018-11-01T22:49:44.879Z,9.93
2018-11-01T22:52:19.231Z,12.68
2018-11-01T22:54:53.653Z,10.80
2018-11-01T22:57:28.756Z,10.75
2018-11-01T23:00:03.763Z,10.35
2018-11-01T23:02:37.793Z,12.03
2018-11-01T23:05:12.477Z,11.05
2018-11-01T23:07:47.778Z,9.83
2018-11-01T23:10:22.946Z,9.13
2018-11-01T23:12:57.353Z,10.82
2018-11-01T23:15:31.571Z,11.43
2018-11-01T23:18:06.051Z,10.80
2018-11-01T23:20:40.533Z,10.15
2018-11-01T23:23:15.089Z,10.13
2018-11-01T23:25:49.545Z,10.08
2018-11-01T23:28:24.057Z,10.82
2018-11-01T23:30:58.489Z,12.60
2018-11-01T23:33:32.804Z,11.40
2018-11-01T23:36:06.742Z,12.55
2018-11-01T23:38:47.655Z,11.53
2018-11-01T23:41:27.578Z,12.28
2018-11-01T23:44:07.390Z,11.78
2018-11-01T23:46:47.863Z,13.58
2018-11-01T23:49:27.404Z,12.33
2018-11-01T23:52:09.508Z,12.03
2018-11-01T23:54:44.299Z,12.33
2018-11-01T23:57:18.736Z,12.55
2018-11-01T23:59:53.167Z,11.53
